sensor_id;sensor_type;location;lat;lon;timestamp;P1;durP1;ratioP1;P2;durP2;ratioP2
53285;SDS011;39171;45.550;12.074;2022-07-05T00:02:36;0.70;;;0.43;;
53285;SDS011;39171;45.550;12.074;2022-07-05T00:08:37;0.60;;;0.40;;
53285;SDS011;39171;45.550;12.074;2022-07-05T00:14:39;0.80;;;0.70;;
53285;SDS011;39171;45.550;12.074;2022-07-05T00:20:42;1.27;;;0.70;;
53285;SDS011;39171;45.550;12.074;2022-07-05T00:26:43;1.00;;;0.75;;
53285;SDS011;39171;45.550;12.074;2022-07-05T00:32:44;1.23;;;0.82;;
53285;SDS011;39171;45.550;12.074;2022-07-05T00:38:46;1.90;;;0.90;;
53285;SDS011;39171;45.550;12.074;2022-07-05T00:44:47;1.30;;;0.70;;
53285;SDS011;39171;45.550;12.074;2022-07-05T00:50:49;2.20;;;0.80;;
53285;SDS011;39171;45.550;12.074;2022-07-05T00:56:52;0.93;;;0.60;;
53285;SDS011;39171;45.550;12.074;2022-07-05T01:02:53;1.00;;;0.70;;
53285;SDS011;39171;45.550;12.074;2022-07-05T01:08:55;1.00;;;0.80;;
53285;SDS011;39171;45.550;12.074;2022-07-05T01:14:56;1.15;;;0.80;;
53285;SDS011;39171;45.550;12.074;2022-07-05T01:20:59;1.17;;;0.90;;
53285;SDS011;39171;45.550;12.074;2022-07-05T01:27:02;0.88;;;0.70;;
53285;SDS011;39171;45.550;12.074;2022-07-05T01:33:04;1.77;;;0.80;;
53285;SDS011;39171;45.550;12.074;2022-07-05T01:39:07;0.98;;;0.63;;
53285;SDS011;39171;45.550;12.074;2022-07-05T01:45:09;1.27;;;0.85;;
53285;SDS011;39171;45.550;12.074;2022-07-05T01:51:22;1.25;;;0.80;;
53285;SDS011;39171;45.550;12.074;2022-07-05T01:57:33;1.40;;;0.68;;
53285;SDS011;39171;45.550;12.074;2022-07-05T02:03:35;0.90;;;0.60;;
53285;SDS011;39171;45.550;12.074;2022-07-05T02:09:37;0.93;;;0.60;;
53285;SDS011;39171;45.550;12.074;2022-07-05T02:15:40;1.13;;;0.60;;
53285;SDS011;39171;45.550;12.074;2022-07-05T02:21:43;1.08;;;0.57;;
53285;SDS011;39171;45.550;12.074;2022-07-05T02:27:49;0.80;;;0.60;;
53285;SDS011;39171;45.550;12.074;2022-07-05T02:33:52;3.25;;;0.98;;
53285;SDS011;39171;45.550;12.074;2022-07-05T02:39:55;1.02;;;0.60;;
53285;SDS011;39171;45.550;12.074;2022-07-05T02:45:57;1.10;;;0.68;;
53285;SDS011;39171;45.550;12.074;2022-07-05T02:51:59;1.40;;;0.88;;
53285;SDS011;39171;45.550;12.074;2022-07-05T02:58:01;1.13;;;0.70;;
53285;SDS011;39171;45.550;12.074;2022-07-05T03:04:05;0.95;;;0.60;;
53285;SDS011;39171;45.550;12.074;2022-07-05T03:10:07;1.35;;;0.70;;
53285;SDS011;39171;45.550;12.074;2022-07-05T03:16:10;2.08;;;0.85;;
53285;SDS011;39171;45.550;12.074;2022-07-05T03:22:12;1.55;;;0.98;;
53285;SDS011;39171;45.550;12.074;2022-07-05T03:28:15;1.70;;;1.00;;
53285;SDS011;39171;45.550;12.074;2022-07-05T03:34:19;2.03;;;1.02;;
53285;SDS011;39171;45.550;12.074;2022-07-05T03:40:21;2.13;;;1.20;;
53285;SDS011;39171;45.550;12.074;2022-07-05T03:46:23;1.52;;;0.90;;
53285;SDS011;39171;45.550;12.074;2022-07-05T03:52:24;1.70;;;0.90;;
53285;SDS011;39171;45.550;12.074;2022-07-05T03:58:26;1.80;;;0.90;;
53285;SDS011;39171;45.550;12.074;2022-07-05T04:04:28;1.15;;;0.80;;
53285;SDS011;39171;45.550;12.074;2022-07-05T04:10:29;1.58;;;1.10;;
53285;SDS011;39171;45.550;12.074;2022-07-05T04:16:31;1.38;;;1.05;;
53285;SDS011;39171;45.550;12.074;2022-07-05T04:22:36;2.10;;;1.17;;
53285;SDS011;39171;45.550;12.074;2022-07-05T04:28:37;1.67;;;1.20;;
53285;SDS011;39171;45.550;12.074;2022-07-05T04:34:42;1.42;;;0.98;;
53285;SDS011;39171;45.550;12.074;2022-07-05T04:40:47;1.55;;;1.05;;
53285;SDS011;39171;45.550;12.074;2022-07-05T04:46:48;1.80;;;1.30;;
53285;SDS011;39171;45.550;12.074;2022-07-05T04:52:50;1.50;;;1.10;;
53285;SDS011;39171;45.550;12.074;2022-07-05T04:58:51;1.52;;;1.13;;
53285;SDS011;39171;45.550;12.074;2022-07-05T05:04:53;2.33;;;1.52;;
53285;SDS011;39171;45.550;12.074;2022-07-05T05:10:54;1.48;;;0.90;;
53285;SDS011;39171;45.550;12.074;2022-07-05T05:16:55;1.58;;;1.05;;
53285;SDS011;39171;45.550;12.074;2022-07-05T05:22:57;1.92;;;1.15;;
53285;SDS011;39171;45.550;12.074;2022-07-05T05:28:58;1.92;;;1.30;;
53285;SDS011;39171;45.550;12.074;2022-07-05T05:35:00;1.30;;;1.17;;
53285;SDS011;39171;45.550;12.074;2022-07-05T05:41:02;1.75;;;1.00;;
53285;SDS011;39171;45.550;12.074;2022-07-05T05:47:03;1.40;;;1.00;;
53285;SDS011;39171;45.550;12.074;2022-07-05T05:53:05;1.10;;;0.90;;
53285;SDS011;39171;45.550;12.074;2022-07-05T05:59:06;1.30;;;0.82;;
53285;SDS011;39171;45.550;12.074;2022-07-05T06:05:09;2.00;;;1.00;;
53285;SDS011;39171;45.550;12.074;2022-07-05T06:11:11;1.00;;;0.80;;
53285;SDS011;39171;45.550;12.074;2022-07-05T06:17:12;1.00;;;0.90;;
53285;SDS011;39171;45.550;12.074;2022-07-05T06:23:13;1.00;;;0.82;;
53285;SDS011;39171;45.550;12.074;2022-07-05T06:29:15;1.00;;;0.70;;
53285;SDS011;39171;45.550;12.074;2022-07-05T06:35:16;1.05;;;0.80;;
53285;SDS011;39171;45.550;12.074;2022-07-05T06:41:18;1.33;;;0.77;;
53285;SDS011;39171;45.550;12.074;2022-07-05T06:47:20;0.82;;;0.60;;
53285;SDS011;39171;45.550;12.074;2022-07-05T06:53:21;1.02;;;0.77;;
53285;SDS011;39171;45.550;12.074;2022-07-05T06:59:22;0.70;;;0.50;;
53285;SDS011;39171;45.550;12.074;2022-07-05T07:05:24;0.80;;;0.68;;
53285;SDS011;39171;45.550;12.074;2022-07-05T07:11:26;0.63;;;0.50;;
53285;SDS011;39171;45.550;12.074;2022-07-05T07:17:28;0.75;;;0.60;;
53285;SDS011;39171;45.550;12.074;2022-07-05T07:23:29;0.80;;;0.60;;
53285;SDS011;39171;45.550;12.074;2022-07-05T07:29:31;0.52;;;0.47;;
53285;SDS011;39171;45.550;12.074;2022-07-05T07:35:33;0.70;;;0.50;;
53285;SDS011;39171;45.550;12.074;2022-07-05T07:41:35;0.68;;;0.55;;
53285;SDS011;39171;45.550;12.074;2022-07-05T07:47:36;0.50;;;0.47;;
53285;SDS011;39171;45.550;12.074;2022-07-05T07:53:38;0.82;;;0.50;;
53285;SDS011;39171;45.550;12.074;2022-07-05T07:59:39;0.98;;;0.50;;
53285;SDS011;39171;45.550;12.074;2022-07-05T08:05:41;0.70;;;0.47;;
53285;SDS011;39171;45.550;12.074;2022-07-05T08:11:42;1.02;;;0.77;;
53285;SDS011;39171;45.550;12.074;2022-07-05T08:17:44;1.00;;;0.70;;
53285;SDS011;39171;45.550;12.074;2022-07-05T08:24:10;0.98;;;0.60;;
53285;SDS011;39171;45.550;12.074;2022-07-05T08:30:12;0.50;;;0.40;;
53285;SDS011;39171;45.550;12.074;2022-07-05T08:36:14;1.08;;;0.55;;
53285;SDS011;39171;45.550;12.074;2022-07-05T08:42:15;0.80;;;0.70;;
53285;SDS011;39171;45.550;12.074;2022-07-05T08:48:17;0.82;;;0.52;;
53285;SDS011;39171;45.550;12.074;2022-07-05T08:54:21;0.50;;;0.50;;
53285;SDS011;39171;45.550;12.074;2022-07-05T09:00:24;0.90;;;0.50;;
53285;SDS011;39171;45.550;12.074;2022-07-05T09:06:26;0.82;;;0.50;;
53285;SDS011;39171;45.550;12.074;2022-07-05T09:12:29;0.77;;;0.57;;
53285;SDS011;39171;45.550;12.074;2022-07-05T09:18:40;1.00;;;0.63;;
53285;SDS011;39171;45.550;12.074;2022-07-05T09:24:57;1.20;;;0.80;;
53285;SDS011;39171;45.550;12.074;2022-07-05T09:31:28;0.75;;;0.55;;
53285;SDS011;39171;45.550;12.074;2022-07-05T09:37:41;1.10;;;0.70;;
53285;SDS011;39171;45.550;12.074;2022-07-05T09:43:48;0.70;;;0.40;;
53285;SDS011;39171;45.550;12.074;2022-07-05T09:49:51;1.33;;;0.90;;
53285;SDS011;39171;45.550;12.074;2022-07-05T09:56:01;1.33;;;0.75;;
53285;SDS011;39171;45.550;12.074;2022-07-05T10:02:03;1.03;;;0.80;;
53285;SDS011;39171;45.550;12.074;2022-07-05T10:08:05;1.70;;;0.93;;
53285;SDS011;39171;45.550;12.074;2022-07-05T10:14:11;1.13;;;0.90;;
53285;SDS011;39171;45.550;12.074;2022-07-05T10:20:19;1.30;;;1.10;;
53285;SDS011;39171;45.550;12.074;2022-07-05T10:26:43;1.73;;;0.95;;
53285;SDS011;39171;45.550;12.074;2022-07-05T10:32:47;3.55;;;1.30;;
53285;SDS011;39171;45.550;12.074;2022-07-05T10:38:49;1.70;;;1.10;;
53285;SDS011;39171;45.550;12.074;2022-07-05T10:44:51;5.13;;;3.17;;
53285;SDS011;39171;45.550;12.074;2022-07-05T11:03:35;1.65;;;1.20;;
53285;SDS011;39171;45.550;12.074;2022-07-05T11:09:37;2.45;;;1.30;;
53285;SDS011;39171;45.550;12.074;2022-07-05T11:22:28;2.03;;;1.42;;
53285;SDS011;39171;45.550;12.074;2022-07-05T11:28:29;2.50;;;1.48;;
53285;SDS011;39171;45.550;12.074;2022-07-05T11:34:46;2.75;;;1.58;;
53285;SDS011;39171;45.550;12.074;2022-07-05T11:40:52;2.22;;;1.40;;
53285;SDS011;39171;45.550;12.074;2022-07-05T11:46:56;1.98;;;1.30;;
53285;SDS011;39171;45.550;12.074;2022-07-05T11:52:59;1.98;;;1.50;;
53285;SDS011;39171;45.550;12.074;2022-07-05T11:59:15;1.52;;;0.90;;
53285;SDS011;39171;45.550;12.074;2022-07-05T12:05:28;1.92;;;1.35;;
53285;SDS011;39171;45.550;12.074;2022-07-05T12:11:31;2.85;;;1.20;;
53285;SDS011;39171;45.550;12.074;2022-07-05T12:17:51;1.88;;;1.25;;
53285;SDS011;39171;45.550;12.074;2022-07-05T12:23:52;2.67;;;1.30;;
53285;SDS011;39171;45.550;12.074;2022-07-05T12:29:54;2.05;;;1.33;;
53285;SDS011;39171;45.550;12.074;2022-07-05T12:35:56;2.25;;;1.20;;
53285;SDS011;39171;45.550;12.074;2022-07-05T12:41:57;2.58;;;1.48;;
53285;SDS011;39171;45.550;12.074;2022-07-05T12:47:59;3.30;;;1.40;;
53285;SDS011;39171;45.550;12.074;2022-07-05T12:54:18;2.08;;;1.55;;
53285;SDS011;39171;45.550;12.074;2022-07-05T13:00:41;2.53;;;1.30;;
53285;SDS011;39171;45.550;12.074;2022-07-05T13:06:53;3.80;;;1.80;;
53285;SDS011;39171;45.550;12.074;2022-07-05T13:13:04;3.95;;;1.92;;
53285;SDS011;39171;45.550;12.074;2022-07-05T13:19:12;3.10;;;1.90;;
53285;SDS011;39171;45.550;12.074;2022-07-05T13:25:14;4.20;;;2.00;;
53285;SDS011;39171;45.550;12.074;2022-07-05T13:31:16;3.20;;;1.88;;
53285;SDS011;39171;45.550;12.074;2022-07-05T13:37:17;1.65;;;1.23;;
53285;SDS011;39171;45.550;12.074;2022-07-05T13:43:18;3.67;;;1.73;;
53285;SDS011;39171;45.550;12.074;2022-07-05T13:49:20;6.07;;;1.67;;
53285;SDS011;39171;45.550;12.074;2022-07-05T13:55:22;1.80;;;1.20;;
53285;SDS011;39171;45.550;12.074;2022-07-05T14:01:26;2.25;;;1.27;;
53285;SDS011;39171;45.550;12.074;2022-07-05T14:07:27;1.95;;;1.30;;
53285;SDS011;39171;45.550;12.074;2022-07-05T14:13:29;2.97;;;1.75;;
53285;SDS011;39171;45.550;12.074;2022-07-05T14:19:30;2.58;;;1.50;;
53285;SDS011;39171;45.550;12.074;2022-07-05T14:25:32;3.72;;;1.50;;
53285;SDS011;39171;45.550;12.074;2022-07-05T14:31:33;2.60;;;1.35;;
53285;SDS011;39171;45.550;12.074;2022-07-05T14:37:35;2.72;;;1.58;;
53285;SDS011;39171;45.550;12.074;2022-07-05T14:43:36;3.15;;;1.80;;
53285;SDS011;39171;45.550;12.074;2022-07-05T14:49:37;2.95;;;1.77;;
53285;SDS011;39171;45.550;12.074;2022-07-05T14:55:39;2.65;;;1.80;;
53285;SDS011;39171;45.550;12.074;2022-07-05T15:01:40;1.92;;;1.10;;
53285;SDS011;39171;45.550;12.074;2022-07-05T15:07:41;3.17;;;1.75;;
53285;SDS011;39171;45.550;12.074;2022-07-05T15:13:43;2.85;;;1.38;;
53285;SDS011;39171;45.550;12.074;2022-07-05T15:19:44;3.10;;;1.75;;
53285;SDS011;39171;45.550;12.074;2022-07-05T15:25:46;2.80;;;1.90;;
53285;SDS011;39171;45.550;12.074;2022-07-05T15:31:47;2.58;;;1.35;;
53285;SDS011;39171;45.550;12.074;2022-07-05T15:37:49;4.95;;;1.67;;
53285;SDS011;39171;45.550;12.074;2022-07-05T15:43:51;3.53;;;2.22;;
53285;SDS011;39171;45.550;12.074;2022-07-05T15:49:52;4.10;;;2.08;;
53285;SDS011;39171;45.550;12.074;2022-07-05T15:55:54;3.20;;;1.77;;
53285;SDS011;39171;45.550;12.074;2022-07-05T16:02:02;2.70;;;2.00;;
53285;SDS011;39171;45.550;12.074;2022-07-05T16:08:04;2.88;;;1.80;;
53285;SDS011;39171;45.550;12.074;2022-07-05T16:14:06;2.55;;;1.70;;
53285;SDS011;39171;45.550;12.074;2022-07-05T16:20:07;2.42;;;1.70;;
53285;SDS011;39171;45.550;12.074;2022-07-05T16:26:10;1.75;;;1.52;;
53285;SDS011;39171;45.550;12.074;2022-07-05T16:32:11;3.13;;;1.90;;
53285;SDS011;39171;45.550;12.074;2022-07-05T16:38:13;2.83;;;1.50;;
53285;SDS011;39171;45.550;12.074;2022-07-05T16:44:15;2.20;;;1.50;;
53285;SDS011;39171;45.550;12.074;2022-07-05T16:50:16;2.45;;;1.73;;
53285;SDS011;39171;45.550;12.074;2022-07-05T16:56:18;4.22;;;1.40;;
53285;SDS011;39171;45.550;12.074;2022-07-05T17:02:20;1.73;;;1.25;;
53285;SDS011;39171;45.550;12.074;2022-07-05T17:08:22;1.55;;;1.00;;
53285;SDS011;39171;45.550;12.074;2022-07-05T17:14:26;1.77;;;1.05;;
53285;SDS011;39171;45.550;12.074;2022-07-05T17:20:27;1.10;;;0.80;;
53285;SDS011;39171;45.550;12.074;2022-07-05T17:26:29;1.80;;;1.13;;
53285;SDS011;39171;45.550;12.074;2022-07-05T17:32:31;1.10;;;0.80;;
53285;SDS011;39171;45.550;12.074;2022-07-05T17:38:32;1.65;;;1.02;;
53285;SDS011;39171;45.550;12.074;2022-07-05T17:44:34;2.20;;;0.90;;
53285;SDS011;39171;45.550;12.074;2022-07-05T17:50:35;1.75;;;0.90;;
53285;SDS011;39171;45.550;12.074;2022-07-05T17:56:37;1.48;;;0.90;;
53285;SDS011;39171;45.550;12.074;2022-07-05T18:02:38;1.20;;;0.80;;
53285;SDS011;39171;45.550;12.074;2022-07-05T18:08:57;0.90;;;0.70;;
53285;SDS011;39171;45.550;12.074;2022-07-05T18:14:59;1.30;;;0.70;;
53285;SDS011;39171;45.550;12.074;2022-07-05T18:21:00;1.42;;;0.57;;
53285;SDS011;39171;45.550;12.074;2022-07-05T18:27:02;2.03;;;0.80;;
53285;SDS011;39171;45.550;12.074;2022-07-05T18:33:04;1.50;;;0.73;;
53285;SDS011;39171;45.550;12.074;2022-07-05T18:39:06;1.05;;;0.65;;
53285;SDS011;39171;45.550;12.074;2022-07-05T18:45:08;0.70;;;0.50;;
53285;SDS011;39171;45.550;12.074;2022-07-05T18:51:09;0.77;;;0.52;;
53285;SDS011;39171;45.550;12.074;2022-07-05T18:57:11;1.73;;;0.60;;
53285;SDS011;39171;45.550;12.074;2022-07-05T19:03:13;0.55;;;0.43;;
53285;SDS011;39171;45.550;12.074;2022-07-05T19:09:14;1.42;;;0.40;;
53285;SDS011;39171;45.550;12.074;2022-07-05T19:15:35;1.00;;;0.47;;
53285;SDS011;39171;45.550;12.074;2022-07-05T19:21:36;0.30;;;0.20;;
53285;SDS011;39171;45.550;12.074;2022-07-05T19:27:38;0.40;;;0.32;;
53285;SDS011;39171;45.550;12.074;2022-07-05T19:33:39;0.40;;;0.30;;
53285;SDS011;39171;45.550;12.074;2022-07-05T19:39:41;0.63;;;0.50;;
53285;SDS011;39171;45.550;12.074;2022-07-05T19:45:42;0.52;;;0.32;;
53285;SDS011;39171;45.550;12.074;2022-07-05T19:51:44;0.47;;;0.30;;
53285;SDS011;39171;45.550;12.074;2022-07-05T19:57:45;0.68;;;0.40;;
53285;SDS011;39171;45.550;12.074;2022-07-05T20:03:47;0.57;;;0.40;;
53285;SDS011;39171;45.550;12.074;2022-07-05T20:09:48;0.80;;;0.50;;
53285;SDS011;39171;45.550;12.074;2022-07-05T20:15:50;0.55;;;0.50;;
53285;SDS011;39171;45.550;12.074;2022-07-05T20:21:51;0.65;;;0.40;;
53285;SDS011;39171;45.550;12.074;2022-07-05T20:27:53;0.70;;;0.40;;
53285;SDS011;39171;45.550;12.074;2022-07-05T20:33:55;0.70;;;0.50;;
53285;SDS011;39171;45.550;12.074;2022-07-05T20:39:57;0.57;;;0.40;;
53285;SDS011;39171;45.550;12.074;2022-07-05T20:45:58;0.95;;;0.30;;
53285;SDS011;39171;45.550;12.074;2022-07-05T20:52:00;0.50;;;0.30;;
53285;SDS011;39171;45.550;12.074;2022-07-05T20:58:01;0.30;;;0.30;;
53285;SDS011;39171;45.550;12.074;2022-07-05T21:04:05;0.57;;;0.40;;
53285;SDS011;39171;45.550;12.074;2022-07-05T21:10:07;0.60;;;0.40;;
53285;SDS011;39171;45.550;12.074;2022-07-05T21:16:09;0.60;;;0.50;;
53285;SDS011;39171;45.550;12.074;2022-07-05T21:22:17;0.70;;;0.40;;
53285;SDS011;39171;45.550;12.074;2022-07-05T21:28:19;0.90;;;0.50;;
53285;SDS011;39171;45.550;12.074;2022-07-05T21:34:20;0.70;;;0.50;;
53285;SDS011;39171;45.550;12.074;2022-07-05T21:40:24;0.68;;;0.50;;
53285;SDS011;39171;45.550;12.074;2022-07-05T21:46:26;0.90;;;0.40;;
53285;SDS011;39171;45.550;12.074;2022-07-05T21:52:28;0.70;;;0.50;;
53285;SDS011;39171;45.550;12.074;2022-07-05T21:58:30;0.90;;;0.50;;
53285;SDS011;39171;45.550;12.074;2022-07-05T22:04:51;0.68;;;0.52;;
53285;SDS011;39171;45.550;12.074;2022-07-05T22:10:53;0.70;;;0.40;;
53285;SDS011;39171;45.550;12.074;2022-07-05T22:23:14;1.33;;;0.70;;
53285;SDS011;39171;45.550;12.074;2022-07-05T22:29:16;1.00;;;0.70;;
53285;SDS011;39171;45.550;12.074;2022-07-05T22:35:18;1.10;;;0.60;;
53285;SDS011;39171;45.550;12.074;2022-07-05T22:41:20;1.25;;;0.52;;
53285;SDS011;39171;45.550;12.074;2022-07-05T22:47:24;0.85;;;0.60;;
53285;SDS011;39171;45.550;12.074;2022-07-05T22:53:25;1.15;;;0.68;;
53285;SDS011;39171;45.550;12.074;2022-07-05T22:59:27;1.15;;;0.60;;
53285;SDS011;39171;45.550;12.074;2022-07-05T23:05:28;1.13;;;0.55;;
53285;SDS011;39171;45.550;12.074;2022-07-05T23:11:30;0.60;;;0.45;;
53285;SDS011;39171;45.550;12.074;2022-07-05T23:17:32;0.82;;;0.50;;
53285;SDS011;39171;45.550;12.074;2022-07-05T23:23:33;0.70;;;0.50;;
53285;SDS011;39171;45.550;12.074;2022-07-05T23:29:35;0.85;;;0.65;;
53285;SDS011;39171;45.550;12.074;2022-07-05T23:35:36;2.45;;;0.70;;
53285;SDS011;39171;45.550;12.074;2022-07-05T23:41:39;1.38;;;0.80;;
53285;SDS011;39171;45.550;12.074;2022-07-05T23:47:40;1.35;;;0.80;;
53285;SDS011;39171;45.550;12.074;2022-07-05T23:53:42;2.42;;;0.80;;
53285;SDS011;39171;45.550;12.074;2022-07-05T23:59:43;1.08;;;0.70;;
